Mahlon Sweet Field Eugene US
ICAO: KEUG
IATA: EUG
Category: Medium
Scheduled Services: Yes

Elevation: 374 ft
TransAlt. 18000 ft.

Airport Communications:
CASCADE APP/DEP:119.6
ATIS:125.225
EUGENE CLNC DEL:121.7
CTAF:118.9
GND:121.7
MC MINNVILLE RDO:122.3
EUGENE TWR:118.9
UNICOM:122.95

KEUG Zoom In..

If you have problems with the map follow the link
https://www.worldairports.se/pages/airport.php?
ICAO=KEUG

Runways:

(A) RW 16L length 6000 ft width 150 ft
ILS 111.75 / hdg 163

(B) RW 16R length 8009 ft width 150 ft
ILS 110.10 / hdg 163

(C) RW 34L length 8009 ft width 150 ft
---- / hdg 343

(D) RW 34R length 6000 ft width 150 ft
---- / hdg 343

Location; KEUG
Day. 24 / Time. 10.54 Zulu
* Altimeter: 30.22
* Temperature: 02° c. 35.6°f.
* Wind from: 220° Speed 05 kn.
Dewpoint: 01° c.
Visibility: 1/4 Statute Miles.
Conditions: Fog.

KEUG 241054Z AUTO 22005KT 1/4SM R16R/1200V2200FT FG VV001 02/01 A3022 RMK AO2 SLP235 T00170011 $


Wind From 220°
Speed 05 kn.

 
 
jpsmedia.com for Web Design worldairports.se 2019   terms of use